sensor_id;sensor_type;location;lat;lon;timestamp;P1;durP1;ratioP1;P2;durP2;ratioP2
41875;SDS011;27555;50.808;4.402;2022-12-18T00:00:02;42.20;;;18.50;;
41875;SDS011;27555;50.808;4.402;2022-12-18T00:02:28;46.63;;;18.70;;
41875;SDS011;27555;50.808;4.402;2022-12-18T00:04:54;45.75;;;19.33;;
41875;SDS011;27555;50.808;4.402;2022-12-18T00:07:19;48.78;;;19.48;;
41875;SDS011;27555;50.808;4.402;2022-12-18T00:09:45;46.25;;;19.75;;
41875;SDS011;27555;50.808;4.402;2022-12-18T00:12:10;45.05;;;17.90;;
41875;SDS011;27555;50.808;4.402;2022-12-18T00:14:36;45.47;;;17.83;;
41875;SDS011;27555;50.808;4.402;2022-12-18T00:17:02;44.10;;;17.02;;
41875;SDS011;27555;50.808;4.402;2022-12-18T00:19:27;36.63;;;16.60;;
41875;SDS011;27555;50.808;4.402;2022-12-18T00:21:54;40.75;;;16.48;;
41875;SDS011;27555;50.808;4.402;2022-12-18T00:24:19;43.08;;;16.10;;
41875;SDS011;27555;50.808;4.402;2022-12-18T00:26:45;44.53;;;17.92;;
41875;SDS011;27555;50.808;4.402;2022-12-18T00:29:11;37.25;;;16.63;;
41875;SDS011;27555;50.808;4.402;2022-12-18T00:31:39;35.75;;;15.88;;
41875;SDS011;27555;50.808;4.402;2022-12-18T00:34:05;36.63;;;16.90;;
41875;SDS011;27555;50.808;4.402;2022-12-18T00:36:32;36.63;;;15.20;;
41875;SDS011;27555;50.808;4.402;2022-12-18T00:38:59;38.65;;;15.98;;
41875;SDS011;27555;50.808;4.402;2022-12-18T00:41:27;37.15;;;15.73;;
41875;SDS011;27555;50.808;4.402;2022-12-18T00:44:12;34.97;;;15.50;;
41875;SDS011;27555;50.808;4.402;2022-12-18T00:46:39;40.88;;;17.38;;
41875;SDS011;27555;50.808;4.402;2022-12-18T00:49:05;41.13;;;16.98;;
41875;SDS011;27555;50.808;4.402;2022-12-18T00:51:31;36.47;;;14.43;;
41875;SDS011;27555;50.808;4.402;2022-12-18T00:53:57;28.58;;;14.32;;
41875;SDS011;27555;50.808;4.402;2022-12-18T00:56:23;34.72;;;14.43;;
41875;SDS011;27555;50.808;4.402;2022-12-18T00:58:49;32.88;;;14.48;;
41875;SDS011;27555;50.808;4.402;2022-12-18T01:01:15;31.65;;;13.82;;
41875;SDS011;27555;50.808;4.402;2022-12-18T01:03:41;31.00;;;12.35;;
41875;SDS011;27555;50.808;4.402;2022-12-18T01:06:07;30.75;;;13.02;;
41875;SDS011;27555;50.808;4.402;2022-12-18T01:08:34;33.38;;;13.80;;
41875;SDS011;27555;50.808;4.402;2022-12-18T01:11:00;30.98;;;13.70;;
41875;SDS011;27555;50.808;4.402;2022-12-18T01:13:31;28.35;;;12.15;;
41875;SDS011;27555;50.808;4.402;2022-12-18T01:15:57;25.08;;;11.60;;
41875;SDS011;27555;50.808;4.402;2022-12-18T01:18:23;26.95;;;11.70;;
41875;SDS011;27555;50.808;4.402;2022-12-18T01:20:48;29.17;;;12.18;;
41875;SDS011;27555;50.808;4.402;2022-12-18T01:23:14;35.17;;;12.30;;
41875;SDS011;27555;50.808;4.402;2022-12-18T01:25:39;32.70;;;12.73;;
41875;SDS011;27555;50.808;4.402;2022-12-18T01:28:05;23.65;;;11.02;;
41875;SDS011;27555;50.808;4.402;2022-12-18T01:30:30;27.00;;;12.00;;
41875;SDS011;27555;50.808;4.402;2022-12-18T01:32:56;26.75;;;10.45;;
41875;SDS011;27555;50.808;4.402;2022-12-18T01:35:22;26.10;;;10.50;;
41875;SDS011;27555;50.808;4.402;2022-12-18T01:37:48;26.75;;;11.40;;
41875;SDS011;27555;50.808;4.402;2022-12-18T01:40:13;23.80;;;10.23;;
41875;SDS011;27555;50.808;4.402;2022-12-18T01:42:39;23.10;;;9.38;;
41875;SDS011;27555;50.808;4.402;2022-12-18T01:50:14;24.75;;;9.90;;
41875;SDS011;27555;50.808;4.402;2022-12-18T01:52:42;21.20;;;9.27;;
41875;SDS011;27555;50.808;4.402;2022-12-18T01:55:18;23.50;;;9.75;;
41875;SDS011;27555;50.808;4.402;2022-12-18T01:57:45;23.63;;;10.57;;
41875;SDS011;27555;50.808;4.402;2022-12-18T02:00:13;24.23;;;11.50;;
41875;SDS011;27555;50.808;4.402;2022-12-18T02:02:43;25.05;;;11.43;;
41875;SDS011;27555;50.808;4.402;2022-12-18T02:05:10;21.10;;;9.57;;
41875;SDS011;27555;50.808;4.402;2022-12-18T02:07:43;23.35;;;10.05;;
41875;SDS011;27555;50.808;4.402;2022-12-18T02:10:27;23.02;;;10.52;;
41875;SDS011;27555;50.808;4.402;2022-12-18T02:18:30;22.85;;;10.18;;
41875;SDS011;27555;50.808;4.402;2022-12-18T02:21:00;23.98;;;10.00;;
41875;SDS011;27555;50.808;4.402;2022-12-18T02:28:34;23.52;;;10.63;;
41875;SDS011;27555;50.808;4.402;2022-12-18T02:31:06;22.80;;;10.20;;
41875;SDS011;27555;50.808;4.402;2022-12-18T02:33:36;25.77;;;10.80;;
41875;SDS011;27555;50.808;4.402;2022-12-18T02:36:04;24.95;;;10.52;;
41875;SDS011;27555;50.808;4.402;2022-12-18T02:38:30;21.40;;;9.30;;
41875;SDS011;27555;50.808;4.402;2022-12-18T02:40:57;21.25;;;9.75;;
41875;SDS011;27555;50.808;4.402;2022-12-18T02:43:23;22.00;;;9.35;;
41875;SDS011;27555;50.808;4.402;2022-12-18T02:45:53;17.65;;;8.70;;
41875;SDS011;27555;50.808;4.402;2022-12-18T02:48:25;26.63;;;9.98;;
41875;SDS011;27555;50.808;4.402;2022-12-18T02:53:45;20.55;;;9.43;;
41875;SDS011;27555;50.808;4.402;2022-12-18T02:56:21;22.65;;;9.90;;
41875;SDS011;27555;50.808;4.402;2022-12-18T03:01:50;20.80;;;8.75;;
41875;SDS011;27555;50.808;4.402;2022-12-18T03:04:22;25.85;;;10.05;;
41875;SDS011;27555;50.808;4.402;2022-12-18T03:06:53;22.55;;;9.73;;
41875;SDS011;27555;50.808;4.402;2022-12-18T03:09:22;22.75;;;9.73;;
41875;SDS011;27555;50.808;4.402;2022-12-18T03:12:00;21.05;;;9.70;;
41875;SDS011;27555;50.808;4.402;2022-12-18T03:17:21;22.02;;;9.63;;
41875;SDS011;27555;50.808;4.402;2022-12-18T03:19:51;20.75;;;8.98;;
41875;SDS011;27555;50.808;4.402;2022-12-18T03:22:19;20.60;;;9.07;;
41875;SDS011;27555;50.808;4.402;2022-12-18T03:24:47;24.02;;;10.20;;
41875;SDS011;27555;50.808;4.402;2022-12-18T03:27:14;24.65;;;9.50;;
41875;SDS011;27555;50.808;4.402;2022-12-18T03:29:49;18.23;;;8.43;;
41875;SDS011;27555;50.808;4.402;2022-12-18T03:32:23;20.88;;;9.18;;
41875;SDS011;27555;50.808;4.402;2022-12-18T03:34:55;19.70;;;8.60;;
41875;SDS011;27555;50.808;4.402;2022-12-18T03:37:24;20.08;;;8.80;;
41875;SDS011;27555;50.808;4.402;2022-12-18T03:39:50;25.90;;;9.73;;
41875;SDS011;27555;50.808;4.402;2022-12-18T03:42:22;23.23;;;9.57;;
41875;SDS011;27555;50.808;4.402;2022-12-18T03:47:57;23.35;;;9.68;;
41875;SDS011;27555;50.808;4.402;2022-12-18T03:50:42;22.40;;;8.82;;
41875;SDS011;27555;50.808;4.402;2022-12-18T03:56:01;19.50;;;9.38;;
41875;SDS011;27555;50.808;4.402;2022-12-18T03:58:29;19.52;;;9.18;;
41875;SDS011;27555;50.808;4.402;2022-12-18T04:00:58;17.42;;;8.02;;
41875;SDS011;27555;50.808;4.402;2022-12-18T04:03:27;24.70;;;9.88;;
41875;SDS011;27555;50.808;4.402;2022-12-18T04:05:54;18.80;;;9.10;;
41875;SDS011;27555;50.808;4.402;2022-12-18T04:08:22;20.25;;;8.65;;
41875;SDS011;27555;50.808;4.402;2022-12-18T04:10:49;20.17;;;9.18;;
41875;SDS011;27555;50.808;4.402;2022-12-18T04:13:21;24.10;;;9.75;;
41875;SDS011;27555;50.808;4.402;2022-12-18T04:15:53;19.80;;;8.38;;
41875;SDS011;27555;50.808;4.402;2022-12-18T04:18:19;22.02;;;9.10;;
41875;SDS011;27555;50.808;4.402;2022-12-18T04:20:44;21.08;;;9.57;;
41875;SDS011;27555;50.808;4.402;2022-12-18T04:23:10;20.08;;;9.45;;
41875;SDS011;27555;50.808;4.402;2022-12-18T04:25:36;19.05;;;8.60;;
41875;SDS011;27555;50.808;4.402;2022-12-18T04:28:02;19.67;;;8.23;;
41875;SDS011;27555;50.808;4.402;2022-12-18T04:30:27;18.55;;;8.70;;
41875;SDS011;27555;50.808;4.402;2022-12-18T04:32:53;19.10;;;8.18;;
41875;SDS011;27555;50.808;4.402;2022-12-18T04:35:19;20.30;;;8.88;;
41875;SDS011;27555;50.808;4.402;2022-12-18T04:37:44;17.63;;;8.38;;
41875;SDS011;27555;50.808;4.402;2022-12-18T04:40:10;19.27;;;8.20;;
41875;SDS011;27555;50.808;4.402;2022-12-18T04:42:36;21.20;;;8.20;;
41875;SDS011;27555;50.808;4.402;2022-12-18T04:45:03;19.20;;;8.68;;
41875;SDS011;27555;50.808;4.402;2022-12-18T04:47:29;18.00;;;8.40;;
41875;SDS011;27555;50.808;4.402;2022-12-18T04:49:55;21.98;;;9.32;;
41875;SDS011;27555;50.808;4.402;2022-12-18T04:52:21;21.13;;;9.07;;
41875;SDS011;27555;50.808;4.402;2022-12-18T04:54:47;20.60;;;8.55;;
41875;SDS011;27555;50.808;4.402;2022-12-18T04:57:13;19.95;;;9.05;;
41875;SDS011;27555;50.808;4.402;2022-12-18T04:59:39;19.83;;;8.45;;
41875;SDS011;27555;50.808;4.402;2022-12-18T05:02:05;20.00;;;8.80;;
41875;SDS011;27555;50.808;4.402;2022-12-18T05:04:30;19.13;;;8.73;;
41875;SDS011;27555;50.808;4.402;2022-12-18T05:06:56;15.77;;;7.75;;
41875;SDS011;27555;50.808;4.402;2022-12-18T05:09:22;17.52;;;7.30;;
41875;SDS011;27555;50.808;4.402;2022-12-18T05:11:48;18.98;;;8.45;;
41875;SDS011;27555;50.808;4.402;2022-12-18T05:14:13;14.68;;;7.13;;
41875;SDS011;27555;50.808;4.402;2022-12-18T05:16:40;18.38;;;8.05;;
41875;SDS011;27555;50.808;4.402;2022-12-18T05:19:05;18.13;;;8.77;;
41875;SDS011;27555;50.808;4.402;2022-12-18T05:21:31;21.48;;;9.35;;
41875;SDS011;27555;50.808;4.402;2022-12-18T05:23:57;20.73;;;7.90;;
41875;SDS011;27555;50.808;4.402;2022-12-18T05:26:22;18.80;;;8.23;;
41875;SDS011;27555;50.808;4.402;2022-12-18T05:28:48;19.83;;;8.48;;
41875;SDS011;27555;50.808;4.402;2022-12-18T05:31:13;18.25;;;7.75;;
41875;SDS011;27555;50.808;4.402;2022-12-18T05:33:39;17.67;;;8.48;;
41875;SDS011;27555;50.808;4.402;2022-12-18T05:36:06;16.67;;;7.85;;
41875;SDS011;27555;50.808;4.402;2022-12-18T05:38:33;19.58;;;7.88;;
41875;SDS011;27555;50.808;4.402;2022-12-18T05:41:01;16.00;;;6.95;;
41875;SDS011;27555;50.808;4.402;2022-12-18T05:43:27;20.88;;;8.43;;
41875;SDS011;27555;50.808;4.402;2022-12-18T05:45:53;16.77;;;8.00;;
41875;SDS011;27555;50.808;4.402;2022-12-18T05:48:19;19.48;;;7.30;;
41875;SDS011;27555;50.808;4.402;2022-12-18T05:50:46;16.20;;;6.90;;
41875;SDS011;27555;50.808;4.402;2022-12-18T05:53:16;23.17;;;8.85;;
41875;SDS011;27555;50.808;4.402;2022-12-18T05:55:45;17.63;;;7.93;;
41875;SDS011;27555;50.808;4.402;2022-12-18T05:58:11;19.08;;;7.68;;
41875;SDS011;27555;50.808;4.402;2022-12-18T06:00:38;22.25;;;8.48;;
41875;SDS011;27555;50.808;4.402;2022-12-18T06:03:09;15.02;;;7.28;;
41875;SDS011;27555;50.808;4.402;2022-12-18T06:05:36;22.35;;;7.28;;
41875;SDS011;27555;50.808;4.402;2022-12-18T06:08:04;18.30;;;7.72;;
41875;SDS011;27555;50.808;4.402;2022-12-18T06:10:30;17.67;;;7.47;;
41875;SDS011;27555;50.808;4.402;2022-12-18T06:12:56;16.83;;;6.65;;
41875;SDS011;27555;50.808;4.402;2022-12-18T06:15:21;17.92;;;7.40;;
41875;SDS011;27555;50.808;4.402;2022-12-18T06:17:47;16.55;;;7.30;;
41875;SDS011;27555;50.808;4.402;2022-12-18T06:20:13;16.33;;;6.88;;
41875;SDS011;27555;50.808;4.402;2022-12-18T06:22:38;17.38;;;7.43;;
41875;SDS011;27555;50.808;4.402;2022-12-18T06:25:04;21.95;;;7.60;;
41875;SDS011;27555;50.808;4.402;2022-12-18T06:27:30;16.05;;;7.28;;
41875;SDS011;27555;50.808;4.402;2022-12-18T06:29:58;17.48;;;7.40;;
41875;SDS011;27555;50.808;4.402;2022-12-18T06:32:24;17.17;;;7.60;;
41875;SDS011;27555;50.808;4.402;2022-12-18T06:34:50;16.25;;;6.97;;
41875;SDS011;27555;50.808;4.402;2022-12-18T06:37:15;15.95;;;6.97;;
41875;SDS011;27555;50.808;4.402;2022-12-18T06:39:41;14.55;;;7.18;;
41875;SDS011;27555;50.808;4.402;2022-12-18T06:42:07;13.30;;;6.50;;
41875;SDS011;27555;50.808;4.402;2022-12-18T06:44:32;15.32;;;6.40;;
41875;SDS011;27555;50.808;4.402;2022-12-18T06:46:58;16.25;;;7.22;;
41875;SDS011;27555;50.808;4.402;2022-12-18T06:49:23;18.05;;;7.15;;
41875;SDS011;27555;50.808;4.402;2022-12-18T06:51:49;15.35;;;6.15;;
41875;SDS011;27555;50.808;4.402;2022-12-18T06:54:14;12.48;;;5.97;;
41875;SDS011;27555;50.808;4.402;2022-12-18T06:56:40;14.75;;;6.15;;
41875;SDS011;27555;50.808;4.402;2022-12-18T06:59:05;13.88;;;6.03;;
41875;SDS011;27555;50.808;4.402;2022-12-18T07:01:31;13.30;;;6.95;;
41875;SDS011;27555;50.808;4.402;2022-12-18T07:03:57;12.65;;;5.75;;
41875;SDS011;27555;50.808;4.402;2022-12-18T07:06:23;12.32;;;5.25;;
41875;SDS011;27555;50.808;4.402;2022-12-18T07:08:50;12.30;;;5.53;;
41875;SDS011;27555;50.808;4.402;2022-12-18T07:11:17;12.85;;;5.80;;
41875;SDS011;27555;50.808;4.402;2022-12-18T07:13:43;12.15;;;5.20;;
41875;SDS011;27555;50.808;4.402;2022-12-18T07:16:19;11.23;;;5.00;;
41875;SDS011;27555;50.808;4.402;2022-12-18T07:18:45;13.82;;;6.07;;
41875;SDS011;27555;50.808;4.402;2022-12-18T07:21:13;13.85;;;5.88;;
41875;SDS011;27555;50.808;4.402;2022-12-18T07:23:40;12.25;;;5.13;;
41875;SDS011;27555;50.808;4.402;2022-12-18T07:26:07;10.95;;;4.95;;
41875;SDS011;27555;50.808;4.402;2022-12-18T07:28:35;17.50;;;6.30;;
41875;SDS011;27555;50.808;4.402;2022-12-18T07:31:06;12.52;;;5.05;;
41875;SDS011;27555;50.808;4.402;2022-12-18T07:33:36;13.05;;;5.20;;
41875;SDS011;27555;50.808;4.402;2022-12-18T07:36:02;11.60;;;5.57;;
41875;SDS011;27555;50.808;4.402;2022-12-18T07:38:30;13.05;;;4.82;;
41875;SDS011;27555;50.808;4.402;2022-12-18T07:43:28;11.18;;;5.10;;
41875;SDS011;27555;50.808;4.402;2022-12-18T07:45:54;12.75;;;4.80;;
41875;SDS011;27555;50.808;4.402;2022-12-18T07:48:20;12.57;;;5.55;;
41875;SDS011;27555;50.808;4.402;2022-12-18T07:50:45;13.00;;;5.43;;
41875;SDS011;27555;50.808;4.402;2022-12-18T07:53:11;12.45;;;5.18;;
41875;SDS011;27555;50.808;4.402;2022-12-18T07:55:36;11.38;;;4.60;;
41875;SDS011;27555;50.808;4.402;2022-12-18T07:58:02;9.93;;;4.68;;
41875;SDS011;27555;50.808;4.402;2022-12-18T08:00:29;9.98;;;3.72;;
41875;SDS011;27555;50.808;4.402;2022-12-18T08:02:55;10.60;;;4.40;;
41875;SDS011;27555;50.808;4.402;2022-12-18T08:05:21;8.15;;;3.67;;
41875;SDS011;27555;50.808;4.402;2022-12-18T08:07:47;11.80;;;4.93;;
41875;SDS011;27555;50.808;4.402;2022-12-18T08:10:13;10.27;;;4.30;;
41875;SDS011;27555;50.808;4.402;2022-12-18T08:12:38;10.45;;;4.88;;
41875;SDS011;27555;50.808;4.402;2022-12-18T08:15:04;11.35;;;5.22;;
41875;SDS011;27555;50.808;4.402;2022-12-18T08:17:30;10.30;;;5.13;;
41875;SDS011;27555;50.808;4.402;2022-12-18T08:19:56;9.68;;;4.18;;
41875;SDS011;27555;50.808;4.402;2022-12-18T08:22:22;12.45;;;4.68;;
41875;SDS011;27555;50.808;4.402;2022-12-18T08:24:47;9.60;;;3.80;;
41875;SDS011;27555;50.808;4.402;2022-12-18T08:27:13;10.68;;;4.93;;
41875;SDS011;27555;50.808;4.402;2022-12-18T08:29:38;13.77;;;5.07;;
41875;SDS011;27555;50.808;4.402;2022-12-18T08:32:04;7.22;;;4.18;;
41875;SDS011;27555;50.808;4.402;2022-12-18T08:34:30;10.25;;;4.78;;
41875;SDS011;27555;50.808;4.402;2022-12-18T08:36:56;10.15;;;5.05;;
41875;SDS011;27555;50.808;4.402;2022-12-18T08:39:21;10.82;;;5.72;;
41875;SDS011;27555;50.808;4.402;2022-12-18T08:41:47;8.35;;;4.90;;
41875;SDS011;27555;50.808;4.402;2022-12-18T08:44:32;23.35;;;5.45;;
41875;SDS011;27555;50.808;4.402;2022-12-18T08:47:07;8.68;;;5.07;;
41875;SDS011;27555;50.808;4.402;2022-12-18T08:49:33;8.32;;;4.63;;
41875;SDS011;27555;50.808;4.402;2022-12-18T08:51:59;8.95;;;4.78;;
41875;SDS011;27555;50.808;4.402;2022-12-18T08:54:25;13.20;;;5.15;;
41875;SDS011;27555;50.808;4.402;2022-12-18T08:56:51;9.23;;;4.45;;
41875;SDS011;27555;50.808;4.402;2022-12-18T08:59:17;11.43;;;5.45;;
41875;SDS011;27555;50.808;4.402;2022-12-18T09:01:43;9.77;;;4.97;;
41875;SDS011;27555;50.808;4.402;2022-12-18T09:04:10;8.90;;;4.43;;
41875;SDS011;27555;50.808;4.402;2022-12-18T09:06:35;12.13;;;5.90;;
41875;SDS011;27555;50.808;4.402;2022-12-18T09:09:02;12.35;;;5.07;;
41875;SDS011;27555;50.808;4.402;2022-12-18T09:11:29;11.75;;;5.40;;
41875;SDS011;27555;50.808;4.402;2022-12-18T09:13:56;10.57;;;4.90;;
41875;SDS011;27555;50.808;4.402;2022-12-18T09:16:23;12.35;;;5.65;;
41875;SDS011;27555;50.808;4.402;2022-12-18T09:18:50;9.60;;;5.25;;
41875;SDS011;27555;50.808;4.402;2022-12-18T09:21:19;12.38;;;5.70;;
41875;SDS011;27555;50.808;4.402;2022-12-18T09:23:51;15.38;;;7.93;;
41875;SDS011;27555;50.808;4.402;2022-12-18T09:26:18;13.07;;;5.75;;
41875;SDS011;27555;50.808;4.402;2022-12-18T09:28:46;10.27;;;4.97;;
41875;SDS011;27555;50.808;4.402;2022-12-18T09:31:12;15.57;;;6.95;;
41875;SDS011;27555;50.808;4.402;2022-12-18T09:33:40;11.75;;;6.30;;
41875;SDS011;27555;50.808;4.402;2022-12-18T09:36:06;13.48;;;6.28;;
41875;SDS011;27555;50.808;4.402;2022-12-18T09:38:34;12.63;;;6.07;;
41875;SDS011;27555;50.808;4.402;2022-12-18T09:41:01;15.00;;;6.60;;
41875;SDS011;27555;50.808;4.402;2022-12-18T09:43:39;24.38;;;7.53;;
41875;SDS011;27555;50.808;4.402;2022-12-18T09:46:11;12.07;;;5.97;;
41875;SDS011;27555;50.808;4.402;2022-12-18T09:48:56;12.15;;;6.13;;
41875;SDS011;27555;50.808;4.402;2022-12-18T09:51:29;16.75;;;6.93;;
41875;SDS011;27555;50.808;4.402;2022-12-18T09:54:02;12.77;;;6.13;;
41875;SDS011;27555;50.808;4.402;2022-12-18T09:56:31;14.48;;;6.78;;
41875;SDS011;27555;50.808;4.402;2022-12-18T09:59:02;15.63;;;7.50;;
41875;SDS011;27555;50.808;4.402;2022-12-18T10:01:29;16.67;;;7.32;;
41875;SDS011;27555;50.808;4.402;2022-12-18T10:03:56;13.27;;;6.93;;
41875;SDS011;27555;50.808;4.402;2022-12-18T10:12:29;14.57;;;7.00;;
41875;SDS011;27555;50.808;4.402;2022-12-18T10:15:24;15.02;;;6.78;;
41875;SDS011;27555;50.808;4.402;2022-12-18T10:21:00;14.07;;;7.47;;
41875;SDS011;27555;50.808;4.402;2022-12-18T10:26:09;12.82;;;6.63;;
41875;SDS011;27555;50.808;4.402;2022-12-18T10:28:36;13.63;;;6.97;;
41875;SDS011;27555;50.808;4.402;2022-12-18T10:31:07;15.27;;;8.02;;
41875;SDS011;27555;50.808;4.402;2022-12-18T10:33:43;16.17;;;8.70;;
41875;SDS011;27555;50.808;4.402;2022-12-18T10:36:09;15.77;;;6.93;;
41875;SDS011;27555;50.808;4.402;2022-12-18T10:38:35;15.73;;;7.75;;
41875;SDS011;27555;50.808;4.402;2022-12-18T10:41:02;18.88;;;7.95;;
41875;SDS011;27555;50.808;4.402;2022-12-18T10:44:09;15.95;;;7.32;;
41875;SDS011;27555;50.808;4.402;2022-12-18T10:46:37;13.52;;;7.45;;
41875;SDS011;27555;50.808;4.402;2022-12-18T10:49:02;19.83;;;8.63;;
41875;SDS011;27555;50.808;4.402;2022-12-18T10:51:30;14.70;;;7.18;;
41875;SDS011;27555;50.808;4.402;2022-12-18T10:56:34;18.48;;;8.43;;
41875;SDS011;27555;50.808;4.402;2022-12-18T11:01:51;15.45;;;7.38;;
41875;SDS011;27555;50.808;4.402;2022-12-18T11:04:24;14.32;;;7.18;;
41875;SDS011;27555;50.808;4.402;2022-12-18T11:07:00;13.68;;;6.40;;
41875;SDS011;27555;50.808;4.402;2022-12-18T11:11:57;16.52;;;8.27;;
41875;SDS011;27555;50.808;4.402;2022-12-18T11:17:20;16.60;;;7.50;;
41875;SDS011;27555;50.808;4.402;2022-12-18T11:19:59;13.82;;;6.97;;
41875;SDS011;27555;50.808;4.402;2022-12-18T11:22:27;12.00;;;6.40;;
41875;SDS011;27555;50.808;4.402;2022-12-18T11:25:02;13.20;;;6.53;;
41875;SDS011;27555;50.808;4.402;2022-12-18T11:27:31;12.68;;;6.80;;
41875;SDS011;27555;50.808;4.402;2022-12-18T11:33:06;18.42;;;7.40;;
41875;SDS011;27555;50.808;4.402;2022-12-18T11:35:49;21.10;;;6.88;;
41875;SDS011;27555;50.808;4.402;2022-12-18T11:38:24;14.98;;;7.30;;
41875;SDS011;27555;50.808;4.402;2022-12-18T11:43:38;13.65;;;7.95;;
41875;SDS011;27555;50.808;4.402;2022-12-18T11:46:15;16.42;;;7.80;;
41875;SDS011;27555;50.808;4.402;2022-12-18T11:49:34;16.75;;;7.68;;
41875;SDS011;27555;50.808;4.402;2022-12-18T11:51:58;13.63;;;6.85;;
41875;SDS011;27555;50.808;4.402;2022-12-18T11:54:32;13.73;;;6.78;;
41875;SDS011;27555;50.808;4.402;2022-12-18T11:57:00;18.10;;;6.78;;
41875;SDS011;27555;50.808;4.402;2022-12-18T12:08:22;16.25;;;7.55;;
41875;SDS011;27555;50.808;4.402;2022-12-18T12:11:14;16.25;;;7.68;;
41875;SDS011;27555;50.808;4.402;2022-12-18T12:16:33;16.45;;;6.75;;
41875;SDS011;27555;50.808;4.402;2022-12-18T12:21:47;13.75;;;7.32;;
41875;SDS011;27555;50.808;4.402;2022-12-18T12:29:35;15.80;;;7.43;;
41875;SDS011;27555;50.808;4.402;2022-12-18T12:40:18;17.85;;;8.20;;
41875;SDS011;27555;50.808;4.402;2022-12-18T12:42:51;18.70;;;8.85;;
41875;SDS011;27555;50.808;4.402;2022-12-18T12:45:58;16.42;;;8.43;;
41875;SDS011;27555;50.808;4.402;2022-12-18T12:48:43;16.98;;;8.93;;
41875;SDS011;27555;50.808;4.402;2022-12-18T12:51:34;18.13;;;8.63;;
41875;SDS011;27555;50.808;4.402;2022-12-18T12:54:08;14.85;;;7.30;;
41875;SDS011;27555;50.808;4.402;2022-12-18T13:04:53;17.77;;;8.18;;
41875;SDS011;27555;50.808;4.402;2022-12-18T13:07:47;17.13;;;9.05;;
41875;SDS011;27555;50.808;4.402;2022-12-18T13:10:39;22.02;;;8.68;;
41875;SDS011;27555;50.808;4.402;2022-12-18T13:15:41;27.35;;;9.02;;
41875;SDS011;27555;50.808;4.402;2022-12-18T13:31:09;17.75;;;8.70;;
41875;SDS011;27555;50.808;4.402;2022-12-18T13:33:40;26.23;;;10.32;;
41875;SDS011;27555;50.808;4.402;2022-12-18T13:36:27;28.77;;;12.80;;
41875;SDS011;27555;50.808;4.402;2022-12-18T13:41:40;23.60;;;10.20;;
41875;SDS011;27555;50.808;4.402;2022-12-18T13:44:13;22.38;;;10.52;;
41875;SDS011;27555;50.808;4.402;2022-12-18T13:47:01;27.45;;;10.88;;
41875;SDS011;27555;50.808;4.402;2022-12-18T13:55:01;24.45;;;11.23;;
41875;SDS011;27555;50.808;4.402;2022-12-18T13:59:56;22.80;;;10.10;;
41875;SDS011;27555;50.808;4.402;2022-12-18T14:02:23;28.42;;;12.77;;
41875;SDS011;27555;50.808;4.402;2022-12-18T14:04:51;23.50;;;10.75;;
41875;SDS011;27555;50.808;4.402;2022-12-18T14:07:24;29.92;;;11.45;;
41875;SDS011;27555;50.808;4.402;2022-12-18T14:09:57;22.65;;;10.18;;
41875;SDS011;27555;50.808;4.402;2022-12-18T14:12:32;25.50;;;10.98;;
41875;SDS011;27555;50.808;4.402;2022-12-18T14:20:51;28.33;;;12.18;;
41875;SDS011;27555;50.808;4.402;2022-12-18T14:23:38;27.42;;;13.25;;
41875;SDS011;27555;50.808;4.402;2022-12-18T14:26:22;46.15;;;19.08;;
41875;SDS011;27555;50.808;4.402;2022-12-18T14:28:52;30.88;;;15.70;;
41875;SDS011;27555;50.808;4.402;2022-12-18T14:31:19;23.85;;;12.18;;
41875;SDS011;27555;50.808;4.402;2022-12-18T14:33:47;27.70;;;13.43;;
41875;SDS011;27555;50.808;4.402;2022-12-18T14:36:18;25.63;;;11.35;;
41875;SDS011;27555;50.808;4.402;2022-12-18T14:38:54;34.65;;;13.88;;
41875;SDS011;27555;50.808;4.402;2022-12-18T14:41:21;28.17;;;13.13;;
41875;SDS011;27555;50.808;4.402;2022-12-18T14:43:48;31.65;;;13.45;;
41875;SDS011;27555;50.808;4.402;2022-12-18T14:48:50;27.60;;;12.07;;
41875;SDS011;27555;50.808;4.402;2022-12-18T14:51:17;33.83;;;12.38;;
41875;SDS011;27555;50.808;4.402;2022-12-18T14:53:54;33.60;;;13.70;;
41875;SDS011;27555;50.808;4.402;2022-12-18T14:59:04;30.77;;;13.10;;
41875;SDS011;27555;50.808;4.402;2022-12-18T15:02:25;28.50;;;12.98;;
41875;SDS011;27555;50.808;4.402;2022-12-18T15:04:38;39.08;;;16.30;;
41875;SDS011;27555;50.808;4.402;2022-12-18T15:07:07;25.20;;;11.80;;
41875;SDS011;27555;50.808;4.402;2022-12-18T15:09:35;33.13;;;14.88;;
41875;SDS011;27555;50.808;4.402;2022-12-18T15:12:01;29.90;;;13.75;;
41875;SDS011;27555;50.808;4.402;2022-12-18T15:17:03;33.05;;;14.88;;
41875;SDS011;27555;50.808;4.402;2022-12-18T15:19:39;35.50;;;14.82;;
41875;SDS011;27555;50.808;4.402;2022-12-18T15:22:20;31.85;;;14.45;;
41875;SDS011;27555;50.808;4.402;2022-12-18T15:24:46;30.80;;;12.95;;
41875;SDS011;27555;50.808;4.402;2022-12-18T15:27:21;32.72;;;13.75;;
41875;SDS011;27555;50.808;4.402;2022-12-18T15:30:26;62.78;;;28.33;;
41875;SDS011;27555;50.808;4.402;2022-12-18T15:32:49;33.50;;;14.27;;
41875;SDS011;27555;50.808;4.402;2022-12-18T15:35:16;29.13;;;13.40;;
41875;SDS011;27555;50.808;4.402;2022-12-18T15:37:43;37.28;;;15.73;;
41875;SDS011;27555;50.808;4.402;2022-12-18T15:40:16;23.90;;;12.80;;
41875;SDS011;27555;50.808;4.402;2022-12-18T15:42:46;32.55;;;12.88;;
41875;SDS011;27555;50.808;4.402;2022-12-18T15:45:31;24.90;;;11.60;;
41875;SDS011;27555;50.808;4.402;2022-12-18T15:47:56;25.63;;;11.80;;
41875;SDS011;27555;50.808;4.402;2022-12-18T15:50:22;27.38;;;12.43;;
41875;SDS011;27555;50.808;4.402;2022-12-18T15:52:49;25.63;;;12.10;;
41875;SDS011;27555;50.808;4.402;2022-12-18T15:55:18;25.23;;;11.18;;
41875;SDS011;27555;50.808;4.402;2022-12-18T15:58:04;29.98;;;14.20;;
41875;SDS011;27555;50.808;4.402;2022-12-18T16:00:31;22.60;;;10.60;;
41875;SDS011;27555;50.808;4.402;2022-12-18T16:02:59;31.52;;;15.75;;
41875;SDS011;27555;50.808;4.402;2022-12-18T16:05:24;34.30;;;15.02;;
41875;SDS011;27555;50.808;4.402;2022-12-18T16:07:52;28.65;;;12.43;;
41875;SDS011;27555;50.808;4.402;2022-12-18T16:10:17;43.38;;;22.52;;
41875;SDS011;27555;50.808;4.402;2022-12-18T16:12:43;31.25;;;13.20;;
41875;SDS011;27555;50.808;4.402;2022-12-18T16:15:10;31.02;;;16.23;;
41875;SDS011;27555;50.808;4.402;2022-12-18T16:17:38;37.90;;;15.13;;
41875;SDS011;27555;50.808;4.402;2022-12-18T16:20:05;32.55;;;14.25;;
41875;SDS011;27555;50.808;4.402;2022-12-18T16:22:36;26.33;;;11.63;;
41875;SDS011;27555;50.808;4.402;2022-12-18T16:25:02;31.55;;;11.65;;
41875;SDS011;27555;50.808;4.402;2022-12-18T16:27:27;28.75;;;13.65;;
41875;SDS011;27555;50.808;4.402;2022-12-18T16:29:53;26.35;;;10.63;;
41875;SDS011;27555;50.808;4.402;2022-12-18T16:32:20;26.85;;;10.55;;
41875;SDS011;27555;50.808;4.402;2022-12-18T16:34:46;31.52;;;12.20;;
41875;SDS011;27555;50.808;4.402;2022-12-18T16:37:13;25.40;;;10.10;;
41875;SDS011;27555;50.808;4.402;2022-12-18T16:39:40;27.17;;;12.88;;
41875;SDS011;27555;50.808;4.402;2022-12-18T16:42:10;24.85;;;11.43;;
41875;SDS011;27555;50.808;4.402;2022-12-18T16:44:44;26.45;;;10.35;;
41875;SDS011;27555;50.808;4.402;2022-12-18T16:47:10;26.48;;;11.60;;
41875;SDS011;27555;50.808;4.402;2022-12-18T16:49:37;24.27;;;12.00;;
41875;SDS011;27555;50.808;4.402;2022-12-18T16:52:03;27.52;;;10.85;;
41875;SDS011;27555;50.808;4.402;2022-12-18T16:54:29;29.58;;;12.57;;
41875;SDS011;27555;50.808;4.402;2022-12-18T16:56:55;28.45;;;11.20;;
41875;SDS011;27555;50.808;4.402;2022-12-18T16:59:21;25.92;;;10.85;;